Martinsville, IL (62442)

8:14 AM CST on December 06, 2016 (GMT -0600)
APRSWXNET | | Change Station

Elev 652 ft 39.30 °N, 87.98 °W | Updated 25 minutes ago

Overcast
Overcast
37 °F
Feels Like 37 °F
N
1
Wind Variable Wind from NNW
Gusts 3.0 mph

Today
High -- | Low -- °F
--% Chance of Precip.
Yesterday
High -- | Low -- °F
Precip. -- in
Pressure 29.74 in
Visibility 4.0 miles
Clouds Overcast 1500 ft
Windchill 37 °F
Dew Point 35 °F
Humidity 93%
Rainfall in
Snow Depth Not available.
6:57 AM 4:28 PM
Waxing Crescent, 42% visible
SPECI KMTO 061402Z AUTO 32009KT 4SM BR OVC015 03/01 A2974 RMK AO2 T00280011
Pressure 29.74 in
Visibility 4.0 miles
Clouds Overcast 1500 ft
Windchill 37 °F
Dew Point 35 °F
Humidity 93%
Rainfall in
Snow Depth Not available.
6:57 AM 4:28 PM
Waxing Crescent, 42% visible
SPECI KMTO 061402Z AUTO 32009KT 4SM BR OVC015 03/01 A2974 RMK AO2 T00280011

10-Day Weather Forecast

Almanac

Astronomy

Dec. 06, 2016 Rise Set
Actual Time
Civil Twilight
Nautical Twilight
Astronomical Twilight
Moon
Length of Visible Light
Length of Day
Tomorrow will be .
, % of the Moon is Illuminated

Today's Extremes

State Highs State Lows

Community

WunderPhotos

Upload Photos

1,955,949 photos uploaded!

WunderBlog® & News

Nearby

Air Quality

  Air Quality AQ Index Pollutant
Not available.

Snow Depth

Station Depth Elevation

Earthquake Activity

City Distance Mag. Time & Date
Minimum magnitude displayed is 2.5.

Coastal Water Temperatures

Place Temperature

Stations

Nearby Weather Stations

Station Location Temp. Windchill Dew Point Humidity Wind Precip. Elev Updated Type
                   

Watches & Warnings

There are currently no watches in effect.